createdAt,value
2022-10-26T00:01:15.408Z,4.67
2022-10-26T00:11:18.215Z,5.83
2022-10-26T00:21:19.685Z,3.77
2022-10-26T00:31:21.528Z,4.67
2022-10-26T00:41:29.472Z,2.90
2022-10-26T00:51:35.238Z,3.10
2022-10-26T01:01:39.098Z,2.93
2022-10-26T01:11:40.621Z,6.23
2022-10-26T01:21:51.544Z,3.03
2022-10-26T01:32:10.068Z,4.03
2022-10-26T01:42:13.368Z,3.03
2022-10-26T01:52:15.371Z,3.07
2022-10-26T02:03:12.395Z,3.70
2022-10-26T02:13:20.463Z,3.40
2022-10-26T02:23:24.985Z,3.33
2022-10-26T02:33:31.998Z,3.10
2022-10-26T02:43:39.292Z,3.33
2022-10-26T02:53:51.812Z,3.50
2022-10-26T03:03:57.952Z,4.07
2022-10-26T03:13:59.469Z,3.17
2022-10-26T03:24:00.979Z,4.97
2022-10-26T03:34:04.022Z,3.43
2022-10-26T03:44:05.650Z,4.13
2022-10-26T03:54:08.261Z,3.90
2022-10-26T04:04:13.570Z,3.63
2022-10-26T04:14:15.102Z,4.63
2022-10-26T04:24:16.577Z,4.40
2022-10-26T04:34:18.063Z,3.90
2022-10-26T04:44:19.649Z,5.17
2022-10-26T04:54:21.484Z,3.90
2022-10-26T05:04:22.950Z,4.97
2022-10-26T05:14:24.499Z,4.83
2022-10-26T05:24:25.974Z,4.63
2022-10-26T05:34:27.397Z,4.63
2022-10-26T05:44:28.865Z,5.80
2022-10-26T05:54:30.342Z,6.00
2022-10-26T06:04:43.317Z,4.57
2022-10-26T06:14:45.212Z,5.30
2022-10-26T06:24:58.771Z,6.10
2022-10-26T06:35:29.225Z,6.53
2022-10-26T06:45:31.709Z,6.20
2022-10-26T06:55:41.378Z,4.80
2022-10-26T07:05:44.357Z,6.10
2022-10-26T07:15:46.565Z,5.57
2022-10-26T07:25:48.057Z,5.07
2022-10-26T07:35:49.577Z,5.10
2022-10-26T07:45:51.679Z,4.93
2022-10-26T07:55:57.611Z,5.50
2022-10-26T08:06:01.635Z,6.23
2022-10-26T08:16:04.953Z,6.27
2022-10-26T08:26:06.477Z,5.00
2022-10-26T08:36:08.093Z,4.47
2022-10-26T08:46:15.394Z,4.47
2022-10-26T08:56:34.913Z,4.30
2022-10-26T09:06:51.780Z,5.00
2022-10-26T09:17:08.240Z,4.30
2022-10-26T09:27:22.113Z,3.40
2022-10-26T09:37:40.346Z,3.63
2022-10-26T09:47:49.161Z,3.37
2022-10-26T09:57:54.329Z,4.47
2022-10-26T10:08:21.933Z,3.80
2022-10-26T10:18:24.220Z,3.23
2022-10-26T10:28:27.421Z,4.57
2022-10-26T10:38:28.967Z,5.27
2022-10-26T10:48:31.753Z,4.37
2022-10-26T10:58:57.109Z,11.40
2022-10-26T11:09:04.794Z,4.50
2022-10-26T11:19:18.246Z,4.10
2022-10-26T11:29:33.825Z,4.50
2022-10-26T11:39:54.933Z,5.80
2022-10-26T11:49:59.166Z,4.97
2022-10-26T12:00:04.331Z,6.23
2022-10-26T12:10:13.993Z,4.90
2022-10-26T12:20:55.064Z,6.07
2022-10-26T12:31:35.002Z,5.30
2022-10-26T12:41:39.235Z,8.43
2022-10-26T12:51:43.363Z,4.83
2022-10-26T13:02:23.974Z,5.13
2022-10-26T13:12:27.241Z,4.83
2022-10-26T13:22:29.340Z,5.00
2022-10-26T13:32:35.602Z,5.40
2022-10-26T13:42:47.660Z,5.43
2022-10-26T13:52:53.418Z,4.40
2022-10-26T14:02:55.528Z,5.90
2022-10-26T14:12:58.171Z,5.27
2022-10-26T14:22:59.619Z,5.47
2022-10-26T14:33:01.115Z,11.93
2022-10-26T14:43:05.944Z,5.00
2022-10-26T14:53:15.362Z,7.93
2022-10-26T15:03:18.245Z,5.90
2022-10-26T15:13:31.118Z,6.13
2022-10-26T15:23:32.683Z,5.83
2022-10-26T15:33:35.254Z,5.67
2022-10-26T15:43:37.681Z,12.00
2022-10-26T15:53:39.733Z,6.43
2022-10-26T16:03:41.202Z,5.97
2022-10-26T16:13:42.811Z,7.77
2022-10-26T16:23:49.728Z,7.13
2022-10-26T16:33:51.238Z,6.00
2022-10-26T16:43:52.672Z,5.83
2022-10-26T16:53:56.600Z,8.63
2022-10-26T17:03:58.170Z,11.27
2022-10-26T17:13:59.870Z,6.67
2022-10-26T17:24:02.081Z,10.33
2022-10-26T17:34:05.876Z,9.20
2022-10-26T17:44:07.451Z,10.23
2022-10-26T17:54:09.223Z,16.03
2022-10-26T18:04:11.712Z,9.47
2022-10-26T18:14:13.971Z,10.63
2022-10-26T18:24:15.579Z,13.13
2022-10-26T18:34:18.538Z,8.97
2022-10-26T18:44:20.014Z,7.33
2022-10-26T18:54:21.697Z,8.10
2022-10-26T19:04:23.156Z,16.13
2022-10-26T19:14:24.739Z,14.07
2022-10-26T19:24:26.192Z,10.60
2022-10-26T19:34:27.653Z,12.50
2022-10-26T19:44:29.087Z,12.47
2022-10-26T19:54:30.779Z,14.97
2022-10-26T20:04:32.214Z,13.80
2022-10-26T20:14:33.662Z,16.80
2022-10-26T20:24:35.156Z,16.40
2022-10-26T20:34:36.740Z,20.60
2022-10-26T20:44:43.170Z,17.10
2022-10-26T20:54:53.991Z,17.13
2022-10-26T21:04:56.098Z,19.17
2022-10-26T21:14:57.602Z,16.93
2022-10-26T21:25:00.006Z,18.57
2022-10-26T21:35:01.544Z,17.90
2022-10-26T21:45:03.980Z,21.03
2022-10-26T21:55:05.780Z,25.53
2022-10-26T22:05:08.327Z,21.70
2022-10-26T22:15:10.065Z,21.90
2022-10-26T22:25:11.562Z,20.37
2022-10-26T22:35:28.657Z,20.37
2022-10-26T22:45:31.130Z,20.87
2022-10-26T22:55:34.072Z,21.53
2022-10-26T23:05:35.615Z,21.73
2022-10-26T23:15:37.073Z,22.03
2022-10-26T23:25:38.520Z,22.37
2022-10-26T23:35:40.405Z,22.37
2022-10-26T23:45:41.913Z,19.93
2022-10-26T23:55:44.607Z,35.57
